Time;durP1;ratioP1;P1;durP2;ratioP2;P2;SDS_P1;SDS_P2;PMS_P1;PMS_P2;Temp;Humidity;BMP_temperature;BMP_pressure;BME280_temperature;BME280_humidity;BME280_pressure;Samples;Min_cycle;Max_cycle;Signal;HPM_P1;HPM_P2
2022/09/02 00:02:04;;;;;;;1.33;1.20;;;;;;;;;;5067720;28;20208;-66
2022/09/02 00:04:35;;;;;;;1.63;1.27;;;;;;;;;;5075263;28;20201;-66
2022/09/02 00:07:04;;;;;;;1.70;1.20;;;;;;;;;;5065998;28;20588;-66
2022/09/02 00:09:39;;;;;;;1.60;1.20;;;;;;;;;;5066694;28;20201;-66
2022/09/02 00:12:09;;;;;;;2.10;1.10;;;;;;;;;;5068918;28;20206;-66
2022/09/02 00:14:45;;;;;;;2.07;1.30;;;;;;;;;;5081403;28;20201;-66
2022/09/02 00:17:14;;;;;;;3.50;1.90;;;;;;;;;;5079060;28;20844;-66
2022/09/02 00:19:44;;;;;;;3.70;2.80;;;;;;;;;;5070020;28;20197;-66
2022/09/02 00:22:22;;;;;;;3.93;3.37;;;;;;;;;;5068010;28;20677;-66
2022/09/02 00:25:05;;;;;;;3.53;3.23;;;;;;;;;;5062293;28;20237;-66
2022/09/02 00:27:37;;;;;;;3.07;2.73;;;;;;;;;;5069756;28;20247;-66
2022/09/02 00:30:09;;;;;;;4.63;2.67;;;;;;;;;;5063387;28;20300;-66
2022/09/02 00:32:39;;;;;;;3.80;2.70;;;;;;;;;;5085804;28;20214;-66
2022/09/02 00:35:09;;;;;;;2.63;2.40;;;;;;;;;;5066161;28;20189;-66
2022/09/02 00:37:42;;;;;;;2.40;2.20;;;;;;;;;;5050870;28;20201;-66
2022/09/02 00:40:20;;;;;;;3.10;1.80;;;;;;;;;;5071488;28;20302;-66
2022/09/02 00:42:52;;;;;;;2.77;2.07;;;;;;;;;;5059708;28;20238;-66
2022/09/02 00:45:26;;;;;;;3.07;2.00;;;;;;;;;;5047724;28;20559;-66
2022/09/02 00:47:59;;;;;;;3.30;1.70;;;;;;;;;;5040022;28;20259;-66
2022/09/02 00:50:33;;;;;;;1.70;1.60;;;;;;;;;;5042926;28;20705;-66
2022/09/02 00:53:08;;;;;;;2.10;1.60;;;;;;;;;;5040921;28;20750;-66
2022/09/02 00:55:51;;;;;;;2.10;1.50;;;;;;;;;;5046388;28;20252;-66
2022/09/02 00:58:23;;;;;;;3.37;1.50;;;;;;;;;;5045407;28;20232;-66
2022/09/02 01:00:56;;;;;;;2.60;1.43;;;;;;;;;;5026674;28;20659;-66
2022/09/02 01:03:27;;;;;;;3.03;1.37;;;;;;;;;;5048730;28;20197;-67
2022/09/02 01:05:56;;;;;;;1.67;1.30;;;;;;;;;;5042244;28;20203;-66
2022/09/02 01:08:37;;;;;;;3.03;1.53;;;;;;;;;;5031777;28;20194;-66
2022/09/02 01:11:18;;;;;;;3.43;1.33;;;;;;;;;;5040442;28;20194;-66
2022/09/02 01:13:51;;;;;;;1.90;1.30;;;;;;;;;;5049948;28;20202;-66
2022/09/02 01:16:32;;;;;;;2.37;1.40;;;;;;;;;;5050510;28;20541;-66
2022/09/02 01:19:03;;;;;;;3.63;1.40;;;;;;;;;;5035493;28;20209;-66
2022/09/02 01:21:33;;;;;;;1.73;1.17;;;;;;;;;;5054352;28;20206;-66
2022/09/02 01:24:07;;;;;;;1.80;1.30;;;;;;;;;;5042084;28;20214;-66
2022/09/02 01:26:38;;;;;;;2.93;1.30;;;;;;;;;;5055290;28;20194;-66
2022/09/02 01:29:15;;;;;;;1.67;1.20;;;;;;;;;;5042256;28;20201;-66
2022/09/02 01:31:48;;;;;;;1.50;1.13;;;;;;;;;;5059551;28;20581;-66
2022/09/02 01:34:22;;;;;;;1.10;1.10;;;;;;;;;;5049668;28;20196;-66
2022/09/02 01:36:51;;;;;;;2.27;1.40;;;;;;;;;;5045406;28;20211;-66
2022/09/02 01:39:25;;;;;;;3.03;1.40;;;;;;;;;;5045696;28;20194;-66
2022/09/02 01:42:09;;;;;;;3.23;1.17;;;;;;;;;;5049789;28;20281;-66
2022/09/02 01:44:42;;;;;;;1.40;1.30;;;;;;;;;;5050682;28;20198;-66
2022/09/02 01:47:11;;;;;;;1.37;1.13;;;;;;;;;;5067447;28;20208;-66
2022/09/02 01:49:54;;;;;;;2.37;1.30;;;;;;;;;;5048760;28;20252;-66
2022/09/02 01:52:26;;;;;;;2.03;1.13;;;;;;;;;;5039097;28;20202;-65
2022/09/02 01:54:56;;;;;;;2.17;1.10;;;;;;;;;;5046144;28;20195;-66
2022/09/02 01:57:28;;;;;;;2.90;1.40;;;;;;;;;;5057423;28;20820;-66
2022/09/02 02:00:00;;;;;;;1.50;1.10;;;;;;;;;;5041934;28;20218;-66
2022/09/02 02:02:44;;;;;;;1.37;1.00;;;;;;;;;;5053131;28;20686;-66
2022/09/02 02:05:14;;;;;;;1.60;1.40;;;;;;;;;;5036641;28;20191;-66
2022/09/02 02:07:47;;;;;;;1.93;1.10;;;;;;;;;;5048903;28;20186;-66
2022/09/02 02:10:19;;;;;;;2.03;1.20;;;;;;;;;;5030573;28;20217;-67
2022/09/02 02:12:53;;;;;;;5.40;1.33;;;;;;;;;;5045509;28;20202;-66
2022/09/02 02:15:26;;;;;;;1.90;1.40;;;;;;;;;;5046169;28;20276;-67
2022/09/02 02:17:54;;;;;;;3.67;1.23;;;;;;;;;;5034575;28;20202;-66
2022/09/02 02:20:25;;;;;;;1.37;1.00;;;;;;;;;;5041983;28;20226;-66
2022/09/02 02:22:57;;;;;;;2.50;1.30;;;;;;;;;;5015559;28;20202;-66
2022/09/02 02:25:29;;;;;;;1.57;1.20;;;;;;;;;;5041651;28;20221;-66
2022/09/02 02:27:58;;;;;;;1.93;1.37;;;;;;;;;;5031133;28;20241;-66
2022/09/02 02:30:40;;;;;;;1.97;1.47;;;;;;;;;;5041808;28;20261;-65
2022/09/02 02:33:11;;;;;;;2.20;1.70;;;;;;;;;;5053829;28;20205;-65
2022/09/02 02:35:43;;;;;;;1.93;1.20;;;;;;;;;;5044691;28;20275;-66
2022/09/02 02:38:14;;;;;;;1.30;1.07;;;;;;;;;;5045495;28;20210;-66
2022/09/02 02:40:45;;;;;;;2.97;1.60;;;;;;;;;;5056439;28;20198;-66
2022/09/02 02:43:20;;;;;;;1.73;1.30;;;;;;;;;;5060258;28;20237;-66
2022/09/02 02:45:53;;;;;;;2.23;1.37;;;;;;;;;;5059911;28;20197;-66
2022/09/02 02:48:24;;;;;;;2.60;1.40;;;;;;;;;;5064857;28;20635;-66
2022/09/02 02:50:55;;;;;;;3.43;1.40;;;;;;;;;;5067822;28;20196;-66
2022/09/02 02:53:28;;;;;;;3.37;1.33;;;;;;;;;;5044749;28;20190;-65
2022/09/02 02:56:00;;;;;;;3.20;1.17;;;;;;;;;;5066602;28;20626;-66
2022/09/02 02:58:30;;;;;;;2.47;1.40;;;;;;;;;;5047887;28;20218;-66
2022/09/02 03:00:59;;;;;;;3.87;1.43;;;;;;;;;;5049762;28;20583;-66
2022/09/02 03:03:32;;;;;;;3.27;1.63;;;;;;;;;;5068768;28;20371;-66
2022/09/02 03:06:02;;;;;;;2.23;1.40;;;;;;;;;;5066119;28;20197;-66
2022/09/02 03:08:36;;;;;;;3.63;1.83;;;;;;;;;;5056579;28;20197;-66
2022/09/02 03:11:11;;;;;;;3.10;1.40;;;;;;;;;;5054366;28;20190;-66
2022/09/02 03:13:42;;;;;;;6.70;1.50;;;;;;;;;;5072410;28;20213;-66
2022/09/02 03:16:13;;;;;;;1.67;1.20;;;;;;;;;;5052918;28;20198;-66
2022/09/02 03:18:44;;;;;;;2.13;1.43;;;;;;;;;;5059804;28;20221;-66
2022/09/02 03:21:14;;;;;;;2.80;1.50;;;;;;;;;;5063905;28;20231;-66
2022/09/02 03:23:45;;;;;;;3.57;1.50;;;;;;;;;;5040314;28;20230;-66
2022/09/02 03:26:14;;;;;;;5.00;1.60;;;;;;;;;;5064479;28;20197;-66
2022/09/02 03:28:48;;;;;;;3.37;1.57;;;;;;;;;;5052792;28;20271;-66
2022/09/02 03:31:21;;;;;;;4.73;1.40;;;;;;;;;;5049495;28;20886;-66
2022/09/02 03:33:56;;;;;;;2.33;1.50;;;;;;;;;;5048674;28;20653;-66
2022/09/02 03:36:31;;;;;;;1.97;1.47;;;;;;;;;;5060049;28;20214;-66
2022/09/02 03:39:03;;;;;;;3.87;1.50;;;;;;;;;;5068186;28;20204;-66
2022/09/02 03:41:40;;;;;;;2.10;1.40;;;;;;;;;;5049820;28;20209;-66
2022/09/02 03:44:09;;;;;;;5.53;1.80;;;;;;;;;;5054194;28;20226;-66
2022/09/02 03:46:40;;;;;;;3.67;1.60;;;;;;;;;;5040807;28;20194;-66
2022/09/02 03:49:12;;;;;;;4.53;1.40;;;;;;;;;;5040349;28;20709;-66
2022/09/02 03:51:42;;;;;;;3.93;1.60;;;;;;;;;;5045443;28;20792;-66
2022/09/02 03:54:13;;;;;;;2.80;1.60;;;;;;;;;;5047623;28;20291;-66
2022/09/02 03:56:51;;;;;;;3.07;2.00;;;;;;;;;;5069153;28;20533;-66
2022/09/02 03:59:19;;;;;;;2.73;1.67;;;;;;;;;;5043629;28;20222;-66
2022/09/02 04:01:50;;;;;;;5.50;1.73;;;;;;;;;;5038422;28;20622;-66
2022/09/02 04:04:20;;;;;;;3.87;1.50;;;;;;;;;;5039465;28;20217;-66
2022/09/02 04:06:52;;;;;;;4.00;1.80;;;;;;;;;;5045189;28;20199;-66
2022/09/02 04:09:23;;;;;;;2.63;1.60;;;;;;;;;;5042714;28;20656;-66
2022/09/02 04:11:53;;;;;;;5.53;1.83;;;;;;;;;;5074997;28;20217;-66
2022/09/02 04:14:28;;;;;;;3.20;1.70;;;;;;;;;;5048088;28;20264;-66
2022/09/02 04:16:58;;;;;;;2.20;1.63;;;;;;;;;;5079525;28;20236;-66
2022/09/02 04:19:30;;;;;;;5.70;1.80;;;;;;;;;;5044643;28;20222;-66
2022/09/02 04:21:59;;;;;;;3.00;1.50;;;;;;;;;;5046819;28;20612;-66
2022/09/02 04:24:28;;;;;;;3.93;1.80;;;;;;;;;;5043674;28;20202;-66
2022/09/02 04:27:00;;;;;;;6.47;2.10;;;;;;;;;;5047053;28;20202;-66
2022/09/02 04:29:32;;;;;;;5.37;1.90;;;;;;;;;;5048665;28;20220;-66
2022/09/02 04:32:04;;;;;;;6.27;1.47;;;;;;;;;;5046572;28;20206;-66
2022/09/02 04:34:35;;;;;;;2.63;1.77;;;;;;;;;;5046868;28;20693;-66
2022/09/02 04:37:06;;;;;;;1.90;1.43;;;;;;;;;;5040632;28;20211;-66
2022/09/02 04:39:40;;;;;;;5.00;1.50;;;;;;;;;;5043040;28;20217;-66
2022/09/02 04:42:10;;;;;;;3.60;2.00;;;;;;;;;;5039862;28;20194;-66
2022/09/02 04:44:38;;;;;;;3.07;1.53;;;;;;;;;;5048216;28;20201;-66
2022/09/02 04:47:06;;;;;;;4.27;1.87;;;;;;;;;;5069094;28;20203;-66
2022/09/02 04:49:37;;;;;;;4.60;1.67;;;;;;;;;;5047209;28;20205;-67
2022/09/02 04:52:09;;;;;;;3.20;1.83;;;;;;;;;;5051999;28;20281;-64
2022/09/02 04:54:37;;;;;;;6.30;2.10;;;;;;;;;;5046329;28;20201;-64
2022/09/02 04:57:07;;;;;;;4.53;1.90;;;;;;;;;;5054963;28;20192;-64
2022/09/02 04:59:37;;;;;;;3.27;1.53;;;;;;;;;;5037021;28;20263;-64
2022/09/02 05:02:09;;;;;;;5.27;1.80;;;;;;;;;;5049664;28;20206;-66
2022/09/02 05:04:42;;;;;;;3.07;1.97;;;;;;;;;;5044951;28;20636;-66
2022/09/02 05:07:30;;;;;;;7.03;1.97;;;;;;;;;;5047898;28;20202;-64
2022/09/02 05:09:59;;;;;;;5.13;1.90;;;;;;;;;;5046443;28;20232;-64
2022/09/02 05:12:39;;;;;;;3.87;1.90;;;;;;;;;;5011122;28;20210;-64
2022/09/02 05:15:11;;;;;;;4.00;1.90;;;;;;;;;;5047701;28;20194;-63
2022/09/02 05:17:42;;;;;;;2.43;1.47;;;;;;;;;;5059023;28;20206;-63
2022/09/02 05:20:13;;;;;;;12.93;4.50;;;;;;;;;;5047651;28;20744;-64
2022/09/02 05:22:48;;;;;;;6.13;2.77;;;;;;;;;;5049957;28;20195;-64
2022/09/02 05:25:19;;;;;;;7.43;3.17;;;;;;;;;;5053593;28;20198;-66
2022/09/02 05:27:52;;;;;;;5.60;2.37;;;;;;;;;;5024597;28;20219;-66
2022/09/02 05:30:21;;;;;;;6.50;2.47;;;;;;;;;;5049727;28;20194;-64
2022/09/02 05:32:52;;;;;;;3.97;2.10;;;;;;;;;;5049075;28;20324;-64
2022/09/02 05:35:23;;;;;;;4.30;2.00;;;;;;;;;;5043769;28;20254;-66
2022/09/02 05:37:53;;;;;;;5.07;2.33;;;;;;;;;;5049871;28;20193;-66
2022/09/02 05:40:29;;;;;;;7.17;2.10;;;;;;;;;;5051569;28;20190;-66
2022/09/02 05:42:57;;;;;;;5.03;2.40;;;;;;;;;;5049619;28;20238;-66
2022/09/02 05:45:25;;;;;;;3.23;1.90;;;;;;;;;;5046715;28;20195;-66
2022/09/02 05:47:53;;;;;;;3.77;1.83;;;;;;;;;;5046064;28;20218;-67
2022/09/02 05:50:24;;;;;;;3.40;1.90;;;;;;;;;;5046526;28;20194;-65
2022/09/02 05:53:00;;;;;;;7.83;2.43;;;;;;;;;;5047652;28;20194;-64
2022/09/02 05:55:28;;;;;;;3.53;2.03;;;;;;;;;;5048534;28;20195;-64
2022/09/02 05:57:58;;;;;;;5.63;2.47;;;;;;;;;;5059422;28;20193;-64
2022/09/02 06:00:30;;;;;;;5.73;2.20;;;;;;;;;;5065609;28;20632;-66
2022/09/02 06:03:17;;;;;;;5.73;2.30;;;;;;;;;;5057525;28;20220;-67
2022/09/02 06:05:53;;;;;;;4.73;2.00;;;;;;;;;;5050398;28;20205;-67
2022/09/02 06:08:21;;;;;;;4.77;2.23;;;;;;;;;;5048756;28;20214;-67
2022/09/02 06:10:52;;;;;;;8.13;2.23;;;;;;;;;;5033219;28;20286;-66
2022/09/02 06:13:24;;;;;;;4.47;2.53;;;;;;;;;;5042057;28;20296;-66
2022/09/02 06:15:56;;;;;;;9.50;2.83;;;;;;;;;;5021233;28;20208;-64
2022/09/02 06:18:27;;;;;;;7.47;2.67;;;;;;;;;;5029968;28;20214;-64
2022/09/02 06:21:00;;;;;;;6.23;2.33;;;;;;;;;;5041044;28;20272;-64
2022/09/02 06:23:30;;;;;;;4.57;2.30;;;;;;;;;;5043175;28;20198;-64
2022/09/02 06:26:00;;;;;;;3.97;2.37;;;;;;;;;;5047362;28;20199;-64
2022/09/02 06:28:33;;;;;;;4.40;2.03;;;;;;;;;;5048428;28;20295;-63
2022/09/02 06:31:06;;;;;;;4.33;2.17;;;;;;;;;;5029822;28;20207;-70
2022/09/02 06:33:38;;;;;;;20.60;4.00;;;;;;;;;;5047443;28;20264;-65
2022/09/02 06:36:14;;;;;;;11.83;3.70;;;;;;;;;;5046380;28;20237;-66
2022/09/02 06:38:47;;;;;;;12.10;3.43;;;;;;;;;;5045552;28;20276;-65
2022/09/02 06:41:26;;;;;;;11.03;2.70;;;;;;;;;;5041736;28;20202;-65
2022/09/02 06:44:00;;;;;;;9.17;2.67;;;;;;;;;;5048015;28;20257;-65
2022/09/02 06:46:37;;;;;;;3.97;2.20;;;;;;;;;;5047506;28;20269;-66
2022/09/02 06:49:11;;;;;;;4.70;1.83;;;;;;;;;;5053462;28;20628;-65
2022/09/02 06:51:40;;;;;;;3.50;2.20;;;;;;;;;;5057980;28;20734;-65
2022/09/02 06:54:15;;;;;;;2.47;2.00;;;;;;;;;;5048813;28;20704;-65
2022/09/02 06:56:50;;;;;;;4.63;2.00;;;;;;;;;;5046257;28;20202;-65
2022/09/02 06:59:20;;;;;;;3.20;2.00;;;;;;;;;;5024720;28;20218;-65
2022/09/02 07:01:50;;;;;;;6.17;2.20;;;;;;;;;;5046523;28;20902;-64
2022/09/02 07:07:08;;;;;;;3.43;1.80;;;;;;;;;;5047139;28;20201;-65
2022/09/02 07:09:40;;;;;;;5.27;2.20;;;;;;;;;;5045669;28;20202;-65
2022/09/02 07:12:09;;;;;;;5.87;2.43;;;;;;;;;;5047837;28;20656;-64
2022/09/02 07:14:42;;;;;;;6.07;1.97;;;;;;;;;;5047973;28;20220;-65
2022/09/02 07:17:16;;;;;;;4.43;1.93;;;;;;;;;;5030553;28;20202;-65
2022/09/02 07:19:59;;;;;;;6.20;2.13;;;;;;;;;;5048220;28;20241;-65
2022/09/02 07:22:31;;;;;;;3.67;1.80;;;;;;;;;;5028222;28;20214;-64
2022/09/02 07:25:03;;;;;;;2.47;1.90;;;;;;;;;;5044102;28;20214;-64
2022/09/02 07:27:31;;;;;;;2.63;2.07;;;;;;;;;;5047685;28;20647;-64
2022/09/02 07:30:05;;;;;;;5.73;2.00;;;;;;;;;;5039275;28;20209;-64
2022/09/02 07:32:35;;;;;;;4.83;1.93;;;;;;;;;;5047388;28;20213;-65
2022/09/02 07:35:05;;;;;;;4.70;1.90;;;;;;;;;;5060388;28;20546;-65
2022/09/02 07:37:36;;;;;;;3.57;1.77;;;;;;;;;;5028502;28;20200;-66
2022/09/02 07:40:06;;;;;;;4.43;2.10;;;;;;;;;;5048069;28;20218;-66
2022/09/02 07:42:35;;;;;;;5.00;2.00;;;;;;;;;;5045334;28;20400;-66
2022/09/02 07:45:07;;;;;;;2.27;1.70;;;;;;;;;;5046329;28;20198;-65
2022/09/02 07:47:38;;;;;;;4.73;2.07;;;;;;;;;;5051830;28;20214;-65
2022/09/02 07:50:06;;;;;;;2.43;1.80;;;;;;;;;;5052602;28;20198;-65
2022/09/02 07:52:49;;;;;;;4.40;2.00;;;;;;;;;;5048240;28;20267;-67
2022/09/02 07:55:34;;;;;;;2.87;1.60;;;;;;;;;;5048022;28;20238;-64
2022/09/02 07:58:09;;;;;;;5.00;2.00;;;;;;;;;;5029614;28;20206;-63
2022/09/02 08:00:44;;;;;;;4.53;2.20;;;;;;;;;;5043331;28;20218;-63
2022/09/02 08:03:16;;;;;;;3.50;2.07;;;;;;;;;;5025246;28;20253;-63
2022/09/02 08:05:46;;;;;;;7.33;2.30;;;;;;;;;;5046789;28;20210;-64
2022/09/02 08:08:19;;;;;;;6.13;2.37;;;;;;;;;;5018737;28;20363;-64
2022/09/02 08:10:51;;;;;;;4.00;2.03;;;;;;;;;;5025344;28;20203;-64
2022/09/02 08:13:19;;;;;;;4.13;2.07;;;;;;;;;;5031155;28;20221;-63
2022/09/02 08:15:56;;;;;;;4.00;2.00;;;;;;;;;;5035698;28;20272;-64
2022/09/02 08:18:26;;;;;;;3.13;2.10;;;;;;;;;;5032891;28;20199;-63
2022/09/02 08:20:58;;;;;;;4.33;2.33;;;;;;;;;;5046889;28;20194;-64
2022/09/02 08:23:31;;;;;;;5.13;1.87;;;;;;;;;;5047050;28;20201;-63
2022/09/02 08:26:06;;;;;;;3.53;1.90;;;;;;;;;;5049791;28;20194;-64
2022/09/02 08:28:38;;;;;;;5.47;1.90;;;;;;;;;;5050022;28;20198;-64
2022/09/02 08:31:10;;;;;;;3.47;2.20;;;;;;;;;;5047763;28;20195;-64
2022/09/02 08:33:54;;;;;;;3.77;1.80;;;;;;;;;;5048467;28;20289;-63
2022/09/02 08:36:26;;;;;;;3.80;2.20;;;;;;;;;;5060008;28;20242;-64
2022/09/02 08:38:56;;;;;;;3.00;1.70;;;;;;;;;;5047331;28;20761;-64
2022/09/02 08:41:32;;;;;;;3.27;1.80;;;;;;;;;;5031349;28;20580;-64
2022/09/02 08:44:04;;;;;;;2.57;1.87;;;;;;;;;;5045444;28;20240;-63
2022/09/02 08:46:34;;;;;;;2.53;1.90;;;;;;;;;;5053311;28;20198;-63
2022/09/02 08:49:21;;;;;;;6.10;2.00;;;;;;;;;;5045987;28;20230;-63
2022/09/02 08:51:55;;;;;;;2.83;1.97;;;;;;;;;;5060738;28;20205;-65
2022/09/02 08:54:45;;;;;;;2.37;1.60;;;;;;;;;;5074781;28;20764;-64
2022/09/02 08:57:17;;;;;;;2.30;1.70;;;;;;;;;;5048758;28;20286;-63
2022/09/02 08:59:49;;;;;;;2.53;1.77;;;;;;;;;;5044723;28;20321;-63
2022/09/02 09:02:36;;;;;;;4.00;2.07;;;;;;;;;;5051666;28;20213;-64
2022/09/02 09:05:18;;;;;;;3.20;1.80;;;;;;;;;;5045837;28;20558;-63
2022/09/02 09:07:49;;;;;;;2.97;1.80;;;;;;;;;;5050229;28;20201;-64
2022/09/02 09:10:35;;;;;;;2.70;1.80;;;;;;;;;;5053761;28;20252;-64
2022/09/02 09:13:21;;;;;;;3.27;2.10;;;;;;;;;;5043854;28;20616;-65
2022/09/02 09:16:01;;;;;;;3.63;2.43;;;;;;;;;;5070297;28;20202;-64
2022/09/02 09:18:39;;;;;;;3.03;2.53;;;;;;;;;;5078829;28;20194;-64
2022/09/02 09:21:10;;;;;;;3.83;3.03;;;;;;;;;;5084394;28;20213;-64
2022/09/02 09:23:42;;;;;;;5.57;3.37;;;;;;;;;;5046733;28;20253;-64
2022/09/02 09:26:18;;;;;;;5.50;3.63;;;;;;;;;;5050430;28;20276;-63
2022/09/02 09:28:52;;;;;;;4.87;3.57;;;;;;;;;;5079271;28;20285;-63
2022/09/02 09:31:29;;;;;;;5.87;3.57;;;;;;;;;;5048515;28;20203;-64
2022/09/02 09:34:01;;;;;;;3.97;3.43;;;;;;;;;;5045551;28;21009;-63
2022/09/02 09:36:49;;;;;;;5.20;3.90;;;;;;;;;;5045805;28;20631;-63
2022/09/02 09:39:33;;;;;;;5.67;4.50;;;;;;;;;;5047860;28;20218;-63
2022/09/02 09:42:14;;;;;;;8.67;4.40;;;;;;;;;;5050941;28;20670;-63
2022/09/02 09:45:15;;;;;;;6.40;4.30;;;;;;;;;;5063379;28;20672;-64
2022/09/02 09:47:45;;;;;;;6.67;4.57;;;;;;;;;;5063075;28;20214;-64
2022/09/02 09:50:21;;;;;;;7.50;4.50;;;;;;;;;;5051472;28;20264;-64
2022/09/02 09:52:51;;;;;;;6.47;4.23;;;;;;;;;;5047125;28;20711;-64
2022/09/02 09:55:27;;;;;;;6.57;4.50;;;;;;;;;;5046820;28;20194;-63
2022/09/02 09:58:10;;;;;;;5.20;4.07;;;;;;;;;;5045218;28;20280;-64
2022/09/02 10:01:03;;;;;;;4.90;4.10;;;;;;;;;;5041309;28;20226;-64
2022/09/02 10:03:33;;;;;;;6.17;4.03;;;;;;;;;;5041823;28;20206;-64
2022/09/02 10:06:16;;;;;;;4.67;3.77;;;;;;;;;;5043428;28;20194;-64
2022/09/02 10:08:55;;;;;;;5.53;3.67;;;;;;;;;;5063811;28;20182;-64
2022/09/02 10:11:34;;;;;;;5.63;3.60;;;;;;;;;;5034891;28;20226;-64
2022/09/02 10:14:11;;;;;;;4.83;3.40;;;;;;;;;;5049974;28;20204;-64
2022/09/02 10:17:02;;;;;;;5.97;3.67;;;;;;;;;;5037977;28;20245;-65
2022/09/02 10:19:55;;;;;;;5.17;4.10;;;;;;;;;;5050971;28;20218;-64
2022/09/02 10:22:40;;;;;;;5.40;4.43;;;;;;;;;;5045956;28;20501;-65
2022/09/02 10:25:47;;;;;;;5.67;3.93;;;;;;;;;;5041966;28;20867;-64
2022/09/02 10:28:33;;;;;;;7.60;4.73;;;;;;;;;;5045106;28;20319;-63
2022/09/02 10:31:22;;;;;;;6.93;5.17;;;;;;;;;;5048141;28;20206;-63
2022/09/02 10:34:14;;;;;;;8.80;5.93;;;;;;;;;;5035125;28;20673;-64
2022/09/02 10:37:05;;;;;;;7.60;5.70;;;;;;;;;;5049065;28;20206;-64
2022/09/02 10:40:07;;;;;;;9.03;6.57;;;;;;;;;;5049744;28;20547;-64
2022/09/02 10:42:46;;;;;;;11.27;6.80;;;;;;;;;;5042709;28;20210;-63
2022/09/02 10:45:30;;;;;;;7.90;6.80;;;;;;;;;;5045412;28;20198;-63
2022/09/02 10:48:18;;;;;;;14.47;8.40;;;;;;;;;;5043305;28;20214;-65
2022/09/02 10:50:55;;;;;;;11.33;7.50;;;;;;;;;;5046956;28;20236;-65
2022/09/02 10:53:35;;;;;;;10.83;7.43;;;;;;;;;;5044697;28;20860;-64
2022/09/02 10:56:06;;;;;;;9.20;7.37;;;;;;;;;;5037159;28;20202;-64
2022/09/02 10:58:43;;;;;;;10.73;6.73;;;;;;;;;;5048052;28;20662;-64
2022/09/02 11:01:32;;;;;;;9.90;6.93;;;;;;;;;;5036532;28;20718;-64
2022/09/02 11:04:19;;;;;;;7.93;5.87;;;;;;;;;;5046583;28;20563;-64
2022/09/02 11:07:04;;;;;;;8.03;6.13;;;;;;;;;;5064028;28;20225;-64
2022/09/02 11:09:47;;;;;;;9.63;6.17;;;;;;;;;;5045041;28;20273;-64
2022/09/02 11:12:19;;;;;;;8.27;5.17;;;;;;;;;;5040962;28;20238;-63
2022/09/02 11:14:53;;;;;;;7.47;5.87;;;;;;;;;;5058407;28;20301;-63
2022/09/02 11:17:38;;;;;;;8.43;5.17;;;;;;;;;;5042559;28;20194;-63
2022/09/02 11:20:43;;;;;;;7.13;5.33;;;;;;;;;;5047833;28;20210;-63
2022/09/02 11:23:22;;;;;;;7.60;4.90;;;;;;;;;;5042330;28;20217;-63
2022/09/02 11:26:03;;;;;;;5.33;4.37;;;;;;;;;;5045639;28;20190;-64
2022/09/02 11:28:43;;;;;;;6.67;4.10;;;;;;;;;;5061705;28;20198;-64
2022/09/02 11:31:23;;;;;;;5.27;4.30;;;;;;;;;;5032975;28;20182;-65
2022/09/02 11:34:04;;;;;;;5.50;4.60;;;;;;;;;;5047002;28;20202;-64
2022/09/02 11:36:40;;;;;;;4.83;3.97;;;;;;;;;;5043120;28;20214;-64
2022/09/02 11:39:30;;;;;;;4.63;3.87;;;;;;;;;;5036079;28;20300;-64
2022/09/02 11:42:36;;;;;;;6.47;4.40;;;;;;;;;;5042678;28;20200;-63
2022/09/02 11:45:20;;;;;;;4.63;3.40;;;;;;;;;;5045068;28;20213;-65
2022/09/02 11:48:11;;;;;;;5.10;3.67;;;;;;;;;;5039667;28;20750;-64
2022/09/02 11:50:42;;;;;;;6.00;3.63;;;;;;;;;;5041431;28;20201;-63
2022/09/02 11:53:30;;;;;;;3.70;3.20;;;;;;;;;;5043678;28;20278;-63
2022/09/02 11:56:18;;;;;;;4.60;3.13;;;;;;;;;;5045186;28;20738;-63
2022/09/02 11:58:56;;;;;;;3.57;3.10;;;;;;;;;;5047637;28;20205;-64
2022/09/02 12:01:44;;;;;;;3.97;3.03;;;;;;;;;;5037236;28;20934;-64
2022/09/02 12:04:15;;;;;;;4.23;3.40;;;;;;;;;;5024667;28;20210;-64
2022/09/02 12:07:11;;;;;;;6.00;3.00;;;;;;;;;;5042459;28;20225;-64
2022/09/02 12:09:50;;;;;;;4.13;2.80;;;;;;;;;;5044797;28;20566;-64
2022/09/02 12:12:40;;;;;;;3.33;3.03;;;;;;;;;;5042875;28;20238;-63
2022/09/02 12:15:17;;;;;;;4.27;3.37;;;;;;;;;;5047427;28;20241;-64
2022/09/02 12:17:55;;;;;;;3.60;3.13;;;;;;;;;;5032383;28;20209;-64
2022/09/02 12:20:41;;;;;;;5.07;3.40;;;;;;;;;;5039219;28;20233;-64
2022/09/02 12:23:36;;;;;;;4.80;3.50;;;;;;;;;;5021302;28;20276;-64
2022/09/02 12:26:10;;;;;;;5.50;3.53;;;;;;;;;;5046158;28;20190;-64
2022/09/02 12:28:47;;;;;;;5.43;4.23;;;;;;;;;;5047827;28;20586;-64
2022/09/02 12:31:44;;;;;;;4.50;3.43;;;;;;;;;;5040422;28;20214;-64
2022/09/02 12:34:24;;;;;;;5.07;3.80;;;;;;;;;;5046600;28;20202;-65
2022/09/02 12:36:58;;;;;;;4.80;3.73;;;;;;;;;;5027469;28;20566;-64
2022/09/02 12:39:34;;;;;;;4.50;3.80;;;;;;;;;;5042056;28;20630;-65
2022/09/02 12:42:10;;;;;;;5.00;3.63;;;;;;;;;;5045105;28;20213;-64
2022/09/02 12:45:05;;;;;;;5.03;3.07;;;;;;;;;;5064836;28;20559;-64
2022/09/02 12:47:55;;;;;;;4.53;3.20;;;;;;;;;;5042078;28;20216;-63
2022/09/02 12:50:48;;;;;;;4.17;3.07;;;;;;;;;;5050164;28;20284;-64
2022/09/02 12:53:30;;;;;;;3.87;3.03;;;;;;;;;;5056601;28;20205;-64
2022/09/02 12:56:03;;;;;;;3.50;2.97;;;;;;;;;;5047392;28;20213;-64
2022/09/02 12:58:39;;;;;;;3.23;2.93;;;;;;;;;;5064019;28;20222;-64
2022/09/02 13:01:39;;;;;;;5.50;2.87;;;;;;;;;;5068837;28;20315;-63
2022/09/02 13:04:25;;;;;;;2.87;2.67;;;;;;;;;;5064619;28;20607;-63
2022/09/02 13:07:16;;;;;;;3.20;2.33;;;;;;;;;;5067488;28;20881;-63
2022/09/02 13:10:22;;;;;;;3.30;2.63;;;;;;;;;;5065333;28;20582;-63
2022/09/02 13:13:09;;;;;;;2.83;2.50;;;;;;;;;;5020292;28;20676;-64
2022/09/02 13:16:17;;;;;;;3.10;2.13;;;;;;;;;;5028527;28;20188;-66
2022/09/02 13:19:19;;;;;;;2.97;2.50;;;;;;;;;;5027233;28;20672;-64
2022/09/02 13:22:15;;;;;;;2.87;2.33;;;;;;;;;;5012468;28;20240;-65
2022/09/02 13:25:04;;;;;;;3.50;2.47;;;;;;;;;;5026833;28;20210;-64
2022/09/02 13:27:50;;;;;;;3.23;2.57;;;;;;;;;;5035042;28;20607;-63
2022/09/02 13:30:28;;;;;;;4.20;2.70;;;;;;;;;;5034836;28;20767;-63
2022/09/02 13:33:05;;;;;;;3.70;2.90;;;;;;;;;;5025199;28;20213;-63
2022/09/02 13:35:36;;;;;;;4.30;3.00;;;;;;;;;;5018436;28;20218;-63
2022/09/02 13:38:13;;;;;;;3.53;3.00;;;;;;;;;;5033568;28;20245;-63
2022/09/02 13:40:51;;;;;;;4.20;2.70;;;;;;;;;;5032452;28;20218;-63
2022/09/02 13:43:26;;;;;;;3.43;3.00;;;;;;;;;;5033614;28;20225;-64
2022/09/02 13:46:01;;;;;;;4.03;3.00;;;;;;;;;;5050004;28;20186;-63
2022/09/02 13:48:38;;;;;;;4.33;2.90;;;;;;;;;;5045368;28;20268;-63
2022/09/02 13:51:16;;;;;;;3.67;2.80;;;;;;;;;;5046588;28;20574;-63
2022/09/02 13:53:50;;;;;;;3.93;2.90;;;;;;;;;;5056515;28;20205;-63
2022/09/02 13:56:45;;;;;;;5.40;2.87;;;;;;;;;;5074263;28;20285;-63
2022/09/02 13:59:32;;;;;;;3.63;2.70;;;;;;;;;;5050460;28;20199;-63
2022/09/02 14:02:26;;;;;;;4.43;2.90;;;;;;;;;;5053936;28;20221;-63
2022/09/02 14:04:59;;;;;;;3.77;2.73;;;;;;;;;;5057908;28;20205;-64
2022/09/02 14:07:42;;;;;;;4.70;3.27;;;;;;;;;;5055857;28;20259;-63
2022/09/02 14:10:22;;;;;;;4.40;3.10;;;;;;;;;;5052988;28;20258;-63
2022/09/02 14:12:54;;;;;;;5.03;3.03;;;;;;;;;;5079702;28;20214;-63
2022/09/02 14:15:32;;;;;;;3.50;2.90;;;;;;;;;;5054193;28;20225;-64
2022/09/02 14:18:09;;;;;;;3.27;2.87;;;;;;;;;;5054739;28;20729;-64
2022/09/02 14:21:02;;;;;;;3.20;2.63;;;;;;;;;;5047336;28;20257;-64
2022/09/02 14:23:33;;;;;;;5.47;2.70;;;;;;;;;;5038333;28;20431;-66
2022/09/02 14:26:05;;;;;;;3.27;2.30;;;;;;;;;;5078798;28;20205;-66
2022/09/02 14:28:37;;;;;;;2.90;2.40;;;;;;;;;;5085061;28;20203;-68
2022/09/02 14:31:07;;;;;;;3.50;2.17;;;;;;;;;;5075016;28;20300;-66
2022/09/02 14:33:38;;;;;;;2.67;2.20;;;;;;;;;;5048967;28;20558;-61
2022/09/02 14:36:09;;;;;;;2.60;2.30;;;;;;;;;;5044248;28;20684;-65
2022/09/02 14:38:56;;;;;;;3.00;1.80;;;;;;;;;;5027712;28;20214;-65
2022/09/02 14:41:37;;;;;;;8.37;2.40;;;;;;;;;;5054682;28;20376;-69
2022/09/02 14:44:12;;;;;;;2.80;2.03;;;;;;;;;;5053026;28;20252;-67
2022/09/02 14:46:50;;;;;;;2.30;1.87;;;;;;;;;;5057509;28;20201;-67
2022/09/02 14:49:29;;;;;;;3.97;2.10;;;;;;;;;;5036429;28;20205;-65
2022/09/02 14:52:00;;;;;;;2.50;1.80;;;;;;;;;;5046193;28;20194;-66
2022/09/02 14:54:41;;;;;;;2.97;1.90;;;;;;;;;;5062648;28;20191;-65
2022/09/02 14:57:30;;;;;;;3.70;1.80;;;;;;;;;;5043597;28;20572;-65
2022/09/02 15:00:12;;;;;;;2.37;1.57;;;;;;;;;;5042736;28;20238;-63
2022/09/02 15:02:46;;;;;;;1.67;1.57;;;;;;;;;;5014099;28;20202;-64
2022/09/02 15:05:25;;;;;;;2.30;1.70;;;;;;;;;;5026381;28;20201;-65
2022/09/02 15:07:59;;;;;;;1.90;1.70;;;;;;;;;;5045364;28;20225;-67
2022/09/02 15:10:31;;;;;;;2.10;1.80;;;;;;;;;;5046580;28;20202;-66
2022/09/02 15:13:01;;;;;;;1.70;1.60;;;;;;;;;;5042481;28;20210;-66
2022/09/02 15:15:30;;;;;;;2.00;1.80;;;;;;;;;;5028593;28;20210;-66
2022/09/02 15:18:02;;;;;;;1.87;1.37;;;;;;;;;;5047458;28;20194;-63
2022/09/02 15:20:33;;;;;;;1.90;1.70;;;;;;;;;;5046054;28;20256;-63
2022/09/02 15:23:05;;;;;;;1.70;1.57;;;;;;;;;;5022304;28;20686;-62
2022/09/02 15:25:33;;;;;;;1.63;1.40;;;;;;;;;;5037310;28;20233;-64
2022/09/02 15:28:05;;;;;;;4.13;1.60;;;;;;;;;;5046847;28;20202;-64
2022/09/02 15:30:36;;;;;;;2.10;1.30;;;;;;;;;;5039910;28;20229;-63
2022/09/02 15:33:08;;;;;;;1.70;1.40;;;;;;;;;;5048320;28;20268;-63
2022/09/02 15:35:46;;;;;;;2.30;1.47;;;;;;;;;;5041130;28;20216;-63
2022/09/02 15:38:19;;;;;;;1.87;1.50;;;;;;;;;;5048092;28;20243;-63
2022/09/02 15:40:51;;;;;;;3.17;1.50;;;;;;;;;;5049382;28;20560;-63